sensor_id;sensor_type;location;lat;lon;timestamp;pressure;altitude;pressure_sealevel;temperature
7882;BMP180;3986;41.884;23.466;2022-08-14T00:01:56;91588.00;;;15.60
7882;BMP180;3986;41.884;23.466;2022-08-14T00:04:23;91586.00;;;15.50
7882;BMP180;3986;41.884;23.466;2022-08-14T00:06:50;91590.00;;;15.60
7882;BMP180;3986;41.884;23.466;2022-08-14T00:09:16;91587.00;;;15.60
7882;BMP180;3986;41.884;23.466;2022-08-14T00:11:43;91590.00;;;15.70
7882;BMP180;3986;41.884;23.466;2022-08-14T00:14:10;91578.00;;;15.50
7882;BMP180;3986;41.884;23.466;2022-08-14T00:16:39;91585.00;;;15.60
7882;BMP180;3986;41.884;23.466;2022-08-14T00:19:06;91578.00;;;15.70
7882;BMP180;3986;41.884;23.466;2022-08-14T00:21:33;91573.00;;;15.40
7882;BMP180;3986;41.884;23.466;2022-08-14T00:23:59;91565.00;;;15.00
7882;BMP180;3986;41.884;23.466;2022-08-14T00:26:26;91565.00;;;14.90
7882;BMP180;3986;41.884;23.466;2022-08-14T00:28:53;91576.00;;;15.10
7882;BMP180;3986;41.884;23.466;2022-08-14T00:31:20;91561.00;;;15.10
7882;BMP180;3986;41.884;23.466;2022-08-14T00:33:49;91559.00;;;15.20
7882;BMP180;3986;41.884;23.466;2022-08-14T00:36:15;91568.00;;;14.50
7882;BMP180;3986;41.884;23.466;2022-08-14T00:38:42;91572.00;;;14.90
7882;BMP180;3986;41.884;23.466;2022-08-14T00:41:09;91564.00;;;14.80
7882;BMP180;3986;41.884;23.466;2022-08-14T00:43:36;91570.00;;;14.70
7882;BMP180;3986;41.884;23.466;2022-08-14T00:46:07;91561.00;;;15.10
7882;BMP180;3986;41.884;23.466;2022-08-14T00:48:34;91558.00;;;14.80
7882;BMP180;3986;41.884;23.466;2022-08-14T00:51:03;91552.00;;;14.70
7882;BMP180;3986;41.884;23.466;2022-08-14T00:53:30;91559.00;;;15.10
7882;BMP180;3986;41.884;23.466;2022-08-14T00:55:57;91555.00;;;15.00
7882;BMP180;3986;41.884;23.466;2022-08-14T00:58:24;91553.00;;;14.80
7882;BMP180;3986;41.884;23.466;2022-08-14T01:00:57;91548.00;;;14.80
7882;BMP180;3986;41.884;23.466;2022-08-14T01:03:26;91548.00;;;14.80
7882;BMP180;3986;41.884;23.466;2022-08-14T01:05:54;91549.00;;;15.10
7882;BMP180;3986;41.884;23.466;2022-08-14T01:08:25;91541.00;;;15.10
7882;BMP180;3986;41.884;23.466;2022-08-14T01:10:53;91542.00;;;15.00
7882;BMP180;3986;41.884;23.466;2022-08-14T01:13:23;91465.00;;;15.40
7882;BMP180;3986;41.884;23.466;2022-08-14T01:15:52;91548.00;;;15.50
7882;BMP180;3986;41.884;23.466;2022-08-14T01:18:20;91531.00;;;15.70
7882;BMP180;3986;41.884;23.466;2022-08-14T01:21:05;91539.00;;;14.90
7882;BMP180;3986;41.884;23.466;2022-08-14T01:23:38;91533.00;;;14.60
7882;BMP180;3986;41.884;23.466;2022-08-14T01:26:06;91534.00;;;14.90
7882;BMP180;3986;41.884;23.466;2022-08-14T01:28:34;91535.00;;;14.80
7882;BMP180;3986;41.884;23.466;2022-08-14T01:31:04;91541.00;;;14.70
7882;BMP180;3986;41.884;23.466;2022-08-14T01:33:35;91519.00;;;15.00
7882;BMP180;3986;41.884;23.466;2022-08-14T01:36:07;91542.00;;;14.90
7882;BMP180;3986;41.884;23.466;2022-08-14T01:38:36;91544.00;;;14.50
7882;BMP180;3986;41.884;23.466;2022-08-14T01:41:06;91548.00;;;14.50
7882;BMP180;3986;41.884;23.466;2022-08-14T01:43:42;91520.00;;;14.30
7882;BMP180;3986;41.884;23.466;2022-08-14T01:46:09;91535.00;;;14.70
7882;BMP180;3986;41.884;23.466;2022-08-14T01:48:37;91529.00;;;14.70
7882;BMP180;3986;41.884;23.466;2022-08-14T01:51:06;91425.00;;;14.80
7882;BMP180;3986;41.884;23.466;2022-08-14T01:53:33;91521.00;;;15.20
7882;BMP180;3986;41.884;23.466;2022-08-14T01:56:03;91517.00;;;14.90
7882;BMP180;3986;41.884;23.466;2022-08-14T01:58:30;91508.00;;;14.90
7882;BMP180;3986;41.884;23.466;2022-08-14T02:00:57;91498.00;;;14.70
7882;BMP180;3986;41.884;23.466;2022-08-14T02:03:26;91516.00;;;15.10
7882;BMP180;3986;41.884;23.466;2022-08-14T02:05:54;91514.00;;;15.00
7882;BMP180;3986;41.884;23.466;2022-08-14T02:08:24;91505.00;;;15.30
7882;BMP180;3986;41.884;23.466;2022-08-14T02:10:54;91509.00;;;15.40
7882;BMP180;3986;41.884;23.466;2022-08-14T02:13:45;91505.00;;;14.70
7882;BMP180;3986;41.884;23.466;2022-08-14T02:16:13;91508.00;;;15.10
7882;BMP180;3986;41.884;23.466;2022-08-14T02:18:42;91506.00;;;15.40
7882;BMP180;3986;41.884;23.466;2022-08-14T02:21:10;91508.00;;;14.90
7882;BMP180;3986;41.884;23.466;2022-08-14T02:23:39;91494.00;;;15.30
7882;BMP180;3986;41.884;23.466;2022-08-14T02:26:15;91497.00;;;15.50
7882;BMP180;3986;41.884;23.466;2022-08-14T02:28:43;91489.00;;;15.70
7882;BMP180;3986;41.884;23.466;2022-08-14T02:31:11;91487.00;;;15.70
7882;BMP180;3986;41.884;23.466;2022-08-14T02:33:38;91486.00;;;15.50
7882;BMP180;3986;41.884;23.466;2022-08-14T02:36:06;91485.00;;;15.40
7882;BMP180;3986;41.884;23.466;2022-08-14T02:38:34;91487.00;;;14.90
7882;BMP180;3986;41.884;23.466;2022-08-14T02:41:01;91493.00;;;14.80
7882;BMP180;3986;41.884;23.466;2022-08-14T02:43:28;91493.00;;;14.90
7882;BMP180;3986;41.884;23.466;2022-08-14T02:45:58;91482.00;;;14.90
7882;BMP180;3986;41.884;23.466;2022-08-14T02:48:24;91483.00;;;14.90
7882;BMP180;3986;41.884;23.466;2022-08-14T02:50:56;91484.00;;;15.20
7882;BMP180;3986;41.884;23.466;2022-08-14T02:53:23;91488.00;;;15.30
7882;BMP180;3986;41.884;23.466;2022-08-14T02:55:50;91489.00;;;15.10
7882;BMP180;3986;41.884;23.466;2022-08-14T02:58:18;91489.00;;;15.10
7882;BMP180;3986;41.884;23.466;2022-08-14T03:00:48;91483.00;;;15.10
7882;BMP180;3986;41.884;23.466;2022-08-14T03:03:17;91481.00;;;14.90
7882;BMP180;3986;41.884;23.466;2022-08-14T03:05:49;91490.00;;;15.00
7882;BMP180;3986;41.884;23.466;2022-08-14T03:08:17;91479.00;;;14.90
7882;BMP180;3986;41.884;23.466;2022-08-14T03:10:44;91498.00;;;14.70
7882;BMP180;3986;41.884;23.466;2022-08-14T03:13:11;91499.00;;;14.70
7882;BMP180;3986;41.884;23.466;2022-08-14T03:15:38;91493.00;;;15.00
7882;BMP180;3986;41.884;23.466;2022-08-14T03:18:09;91488.00;;;15.40
7882;BMP180;3986;41.884;23.466;2022-08-14T03:20:38;91494.00;;;15.50
7882;BMP180;3986;41.884;23.466;2022-08-14T03:23:05;91490.00;;;15.50
7882;BMP180;3986;41.884;23.466;2022-08-14T03:25:32;91491.00;;;15.20
7882;BMP180;3986;41.884;23.466;2022-08-14T03:28:01;91491.00;;;15.00
7882;BMP180;3986;41.884;23.466;2022-08-14T03:30:29;91498.00;;;14.70
7882;BMP180;3986;41.884;23.466;2022-08-14T03:32:57;91503.00;;;14.60
7882;BMP180;3986;41.884;23.466;2022-08-14T03:35:24;91508.00;;;14.70
7882;BMP180;3986;41.884;23.466;2022-08-14T03:37:52;91500.00;;;15.20
7882;BMP180;3986;41.884;23.466;2022-08-14T03:40:20;91502.00;;;15.30
7882;BMP180;3986;41.884;23.466;2022-08-14T03:42:49;91503.00;;;15.10
7882;BMP180;3986;41.884;23.466;2022-08-14T03:45:16;91500.00;;;15.00
7882;BMP180;3986;41.884;23.466;2022-08-14T03:47:43;91505.00;;;14.90
7882;BMP180;3986;41.884;23.466;2022-08-14T03:50:10;91506.00;;;15.30
7882;BMP180;3986;41.884;23.466;2022-08-14T03:52:39;91505.00;;;15.10
7882;BMP180;3986;41.884;23.466;2022-08-14T03:55:10;91508.00;;;14.60
7882;BMP180;3986;41.884;23.466;2022-08-14T03:57:37;91516.00;;;15.00
7882;BMP180;3986;41.884;23.466;2022-08-14T04:00:07;91502.00;;;15.10
7882;BMP180;3986;41.884;23.466;2022-08-14T04:02:36;91493.00;;;15.30
7882;BMP180;3986;41.884;23.466;2022-08-14T04:05:04;91493.00;;;15.50
7882;BMP180;3986;41.884;23.466;2022-08-14T04:07:31;91478.00;;;15.50
7882;BMP180;3986;41.884;23.466;2022-08-14T04:09:58;91498.00;;;15.70
7882;BMP180;3986;41.884;23.466;2022-08-14T04:12:27;91498.00;;;15.70
7882;BMP180;3986;41.884;23.466;2022-08-14T04:14:53;91494.00;;;15.70
7882;BMP180;3986;41.884;23.466;2022-08-14T04:17:21;91452.00;;;15.50
7882;BMP180;3986;41.884;23.466;2022-08-14T04:19:47;91495.00;;;15.50
7882;BMP180;3986;41.884;23.466;2022-08-14T04:22:14;91499.00;;;15.60
7882;BMP180;3986;41.884;23.466;2022-08-14T04:24:41;91488.00;;;15.50
7882;BMP180;3986;41.884;23.466;2022-08-14T04:27:10;91494.00;;;15.50
7882;BMP180;3986;41.884;23.466;2022-08-14T04:29:40;91491.00;;;15.30
7882;BMP180;3986;41.884;23.466;2022-08-14T04:32:08;91491.00;;;15.20
7882;BMP180;3986;41.884;23.466;2022-08-14T04:34:36;91500.00;;;15.20
7882;BMP180;3986;41.884;23.466;2022-08-14T04:37:04;91408.00;;;15.50
7882;BMP180;3986;41.884;23.466;2022-08-14T04:39:49;91493.00;;;15.60
7882;BMP180;3986;41.884;23.466;2022-08-14T04:42:33;91491.00;;;15.60
7882;BMP180;3986;41.884;23.466;2022-08-14T04:45:20;91493.00;;;15.50
7882;BMP180;3986;41.884;23.466;2022-08-14T04:47:47;91485.00;;;15.70
7882;BMP180;3986;41.884;23.466;2022-08-14T04:50:32;91490.00;;;15.40
7882;BMP180;3986;41.884;23.466;2022-08-14T04:53:00;91494.00;;;15.60
7882;BMP180;3986;41.884;23.466;2022-08-14T04:55:27;91503.00;;;15.80
7882;BMP180;3986;41.884;23.466;2022-08-14T04:57:54;91503.00;;;15.60
7882;BMP180;3986;41.884;23.466;2022-08-14T05:00:22;91499.00;;;15.90
7882;BMP180;3986;41.884;23.466;2022-08-14T05:02:49;91491.00;;;15.60
7882;BMP180;3986;41.884;23.466;2022-08-14T05:05:16;91493.00;;;15.90
7882;BMP180;3986;41.884;23.466;2022-08-14T05:07:45;91492.00;;;16.10
7882;BMP180;3986;41.884;23.466;2022-08-14T05:10:11;91496.00;;;16.20
7882;BMP180;3986;41.884;23.466;2022-08-14T05:12:38;91490.00;;;16.20
7882;BMP180;3986;41.884;23.466;2022-08-14T05:15:06;91484.00;;;15.90
7882;BMP180;3986;41.884;23.466;2022-08-14T05:17:41;91489.00;;;16.00
7882;BMP180;3986;41.884;23.466;2022-08-14T05:20:09;91487.00;;;16.10
7882;BMP180;3986;41.884;23.466;2022-08-14T05:22:36;91488.00;;;16.30
7882;BMP180;3986;41.884;23.466;2022-08-14T05:25:04;91482.00;;;16.30
7882;BMP180;3986;41.884;23.466;2022-08-14T05:27:31;91461.00;;;16.30
7882;BMP180;3986;41.884;23.466;2022-08-14T05:29:58;91486.00;;;16.50
7882;BMP180;3986;41.884;23.466;2022-08-14T05:32:25;91490.00;;;16.50
7882;BMP180;3986;41.884;23.466;2022-08-14T05:34:54;91491.00;;;16.50
7882;BMP180;3986;41.884;23.466;2022-08-14T05:37:22;91486.00;;;16.50
7882;BMP180;3986;41.884;23.466;2022-08-14T05:39:49;91492.00;;;16.30
7882;BMP180;3986;41.884;23.466;2022-08-14T05:42:16;91493.00;;;16.40
7882;BMP180;3986;41.884;23.466;2022-08-14T05:44:42;91499.00;;;16.50
7882;BMP180;3986;41.884;23.466;2022-08-14T05:47:09;91493.00;;;16.50
7882;BMP180;3986;41.884;23.466;2022-08-14T05:49:36;91495.00;;;16.30
7882;BMP180;3986;41.884;23.466;2022-08-14T05:52:05;91489.00;;;16.20
7882;BMP180;3986;41.884;23.466;2022-08-14T05:54:32;91495.00;;;16.10
7882;BMP180;3986;41.884;23.466;2022-08-14T05:56:59;91496.00;;;16.00
7882;BMP180;3986;41.884;23.466;2022-08-14T05:59:25;91492.00;;;16.10
7882;BMP180;3986;41.884;23.466;2022-08-14T06:01:52;91487.00;;;16.20
7882;BMP180;3986;41.884;23.466;2022-08-14T06:04:19;91492.00;;;16.10
7882;BMP180;3986;41.884;23.466;2022-08-14T06:06:46;91398.00;;;16.20
7882;BMP180;3986;41.884;23.466;2022-08-14T06:09:14;91480.00;;;16.10
7882;BMP180;3986;41.884;23.466;2022-08-14T06:11:41;91482.00;;;16.20
7882;BMP180;3986;41.884;23.466;2022-08-14T06:14:08;91484.00;;;16.20
7882;BMP180;3986;41.884;23.466;2022-08-14T06:16:35;91479.00;;;16.30
7882;BMP180;3986;41.884;23.466;2022-08-14T06:19:02;91450.00;;;16.20
7882;BMP180;3986;41.884;23.466;2022-08-14T06:21:30;91485.00;;;16.50
7882;BMP180;3986;41.884;23.466;2022-08-14T06:23:57;91490.00;;;16.10
7882;BMP180;3986;41.884;23.466;2022-08-14T06:26:25;91498.00;;;16.30
7882;BMP180;3986;41.884;23.466;2022-08-14T06:28:51;91477.00;;;16.70
7882;BMP180;3986;41.884;23.466;2022-08-14T06:31:18;91480.00;;;16.60
7882;BMP180;3986;41.884;23.466;2022-08-14T06:33:45;91479.00;;;16.60
7882;BMP180;3986;41.884;23.466;2022-08-14T06:36:12;91486.00;;;16.20
7882;BMP180;3986;41.884;23.466;2022-08-14T06:38:42;91476.00;;;16.50
7882;BMP180;3986;41.884;23.466;2022-08-14T06:41:09;91470.00;;;16.70
7882;BMP180;3986;41.884;23.466;2022-08-14T06:43:37;91470.00;;;16.80
7882;BMP180;3986;41.884;23.466;2022-08-14T06:46:04;91468.00;;;16.60
7882;BMP180;3986;41.884;23.466;2022-08-14T06:48:32;91480.00;;;16.00
7882;BMP180;3986;41.884;23.466;2022-08-14T06:50:59;91483.00;;;16.20
7882;BMP180;3986;41.884;23.466;2022-08-14T06:53:26;91473.00;;;16.60
7882;BMP180;3986;41.884;23.466;2022-08-14T06:55:54;91475.00;;;16.80
7882;BMP180;3986;41.884;23.466;2022-08-14T06:58:21;91479.00;;;16.70
7882;BMP180;3986;41.884;23.466;2022-08-14T07:00:50;91469.00;;;17.00
7882;BMP180;3986;41.884;23.466;2022-08-14T07:03:34;91477.00;;;17.10
7882;BMP180;3986;41.884;23.466;2022-08-14T07:06:18;91478.00;;;17.20
7882;BMP180;3986;41.884;23.466;2022-08-14T07:08:45;91475.00;;;17.20
7882;BMP180;3986;41.884;23.466;2022-08-14T07:11:13;91473.00;;;17.30
7882;BMP180;3986;41.884;23.466;2022-08-14T07:13:39;91467.00;;;17.40
7882;BMP180;3986;41.884;23.466;2022-08-14T07:16:08;91455.00;;;16.90
7882;BMP180;3986;41.884;23.466;2022-08-14T07:18:38;91454.00;;;16.60
7882;BMP180;3986;41.884;23.466;2022-08-14T07:21:07;91465.00;;;16.90
7882;BMP180;3986;41.884;23.466;2022-08-14T07:23:34;91482.00;;;16.90
7882;BMP180;3986;41.884;23.466;2022-08-14T07:26:02;91468.00;;;17.30
7882;BMP180;3986;41.884;23.466;2022-08-14T07:28:30;91473.00;;;17.20
7882;BMP180;3986;41.884;23.466;2022-08-14T07:31:00;91483.00;;;17.30
7882;BMP180;3986;41.884;23.466;2022-08-14T07:33:32;91477.00;;;17.10
7882;BMP180;3986;41.884;23.466;2022-08-14T07:36:01;91321.00;;;17.70
7882;BMP180;3986;41.884;23.466;2022-08-14T07:38:29;91394.00;;;17.50
7882;BMP180;3986;41.884;23.466;2022-08-14T07:40:56;91474.00;;;17.60
7882;BMP180;3986;41.884;23.466;2022-08-14T07:43:24;91488.00;;;17.60
7882;BMP180;3986;41.884;23.466;2022-08-14T07:45:51;91477.00;;;18.10
7882;BMP180;3986;41.884;23.466;2022-08-14T07:48:18;91482.00;;;18.70
7882;BMP180;3986;41.884;23.466;2022-08-14T07:50:46;91462.00;;;18.50
7882;BMP180;3986;41.884;23.466;2022-08-14T07:53:15;91480.00;;;17.70
7882;BMP180;3986;41.884;23.466;2022-08-14T07:55:42;91480.00;;;18.60
7882;BMP180;3986;41.884;23.466;2022-08-14T07:58:11;91478.00;;;19.00
7882;BMP180;3986;41.884;23.466;2022-08-14T08:00:38;91477.00;;;19.00
7882;BMP180;3986;41.884;23.466;2022-08-14T08:03:06;91484.00;;;19.10
7882;BMP180;3986;41.884;23.466;2022-08-14T08:05:36;91466.00;;;19.80
7882;BMP180;3986;41.884;23.466;2022-08-14T08:08:05;91471.00;;;21.10
7882;BMP180;3986;41.884;23.466;2022-08-14T08:10:33;91458.00;;;21.80
7882;BMP180;3986;41.884;23.466;2022-08-14T08:13:04;91474.00;;;20.50
7882;BMP180;3986;41.884;23.466;2022-08-14T08:15:34;91463.00;;;21.00
7882;BMP180;3986;41.884;23.466;2022-08-14T08:18:03;91470.00;;;20.40
7882;BMP180;3986;41.884;23.466;2022-08-14T08:20:32;91417.00;;;20.10
7882;BMP180;3986;41.884;23.466;2022-08-14T08:23:00;91470.00;;;20.50
7882;BMP180;3986;41.884;23.466;2022-08-14T08:25:30;91467.00;;;19.30
7882;BMP180;3986;41.884;23.466;2022-08-14T08:28:00;91467.00;;;19.50
7882;BMP180;3986;41.884;23.466;2022-08-14T08:30:29;91471.00;;;19.50
7882;BMP180;3986;41.884;23.466;2022-08-14T08:32:57;91464.00;;;19.20
7882;BMP180;3986;41.884;23.466;2022-08-14T08:35:26;91468.00;;;18.90
7882;BMP180;3986;41.884;23.466;2022-08-14T08:37:59;91480.00;;;19.10
7882;BMP180;3986;41.884;23.466;2022-08-14T08:40:29;91452.00;;;19.20
7882;BMP180;3986;41.884;23.466;2022-08-14T08:43:00;91457.00;;;19.00
7882;BMP180;3986;41.884;23.466;2022-08-14T08:45:27;91482.00;;;18.70
7882;BMP180;3986;41.884;23.466;2022-08-14T08:47:54;91489.00;;;18.60
7882;BMP180;3986;41.884;23.466;2022-08-14T08:50:24;91506.00;;;18.50
7882;BMP180;3986;41.884;23.466;2022-08-14T08:52:56;91496.00;;;18.50
7882;BMP180;3986;41.884;23.466;2022-08-14T08:55:30;91509.00;;;18.50
7882;BMP180;3986;41.884;23.466;2022-08-14T08:57:59;91490.00;;;18.30
7882;BMP180;3986;41.884;23.466;2022-08-14T09:00:27;91504.00;;;18.30
7882;BMP180;3986;41.884;23.466;2022-08-14T09:03:01;91509.00;;;18.20
7882;BMP180;3986;41.884;23.466;2022-08-14T09:05:29;91506.00;;;18.20
7882;BMP180;3986;41.884;23.466;2022-08-14T09:08:15;91513.00;;;18.20
7882;BMP180;3986;41.884;23.466;2022-08-14T09:10:46;91511.00;;;17.90
7882;BMP180;3986;41.884;23.466;2022-08-14T09:13:13;91513.00;;;18.00
7882;BMP180;3986;41.884;23.466;2022-08-14T09:15:42;91500.00;;;17.60
7882;BMP180;3986;41.884;23.466;2022-08-14T09:18:10;91505.00;;;18.00
7882;BMP180;3986;41.884;23.466;2022-08-14T09:20:39;91511.00;;;18.00
7882;BMP180;3986;41.884;23.466;2022-08-14T09:23:07;91511.00;;;18.10
7882;BMP180;3986;41.884;23.466;2022-08-14T09:25:34;91510.00;;;18.30
7882;BMP180;3986;41.884;23.466;2022-08-14T09:28:04;91515.00;;;18.10
7882;BMP180;3986;41.884;23.466;2022-08-14T09:30:31;91505.00;;;17.90
7882;BMP180;3986;41.884;23.466;2022-08-14T09:36:26;91499.00;;;18.20
7882;BMP180;3986;41.884;23.466;2022-08-14T09:39:06;91487.00;;;18.00
7882;BMP180;3986;41.884;23.466;2022-08-14T09:41:43;91513.00;;;17.80
7882;BMP180;3986;41.884;23.466;2022-08-14T09:44:26;91517.00;;;17.60
7882;BMP180;3986;41.884;23.466;2022-08-14T09:46:55;91514.00;;;17.90
7882;BMP180;3986;41.884;23.466;2022-08-14T09:49:29;91519.00;;;17.90
7882;BMP180;3986;41.884;23.466;2022-08-14T09:52:03;91524.00;;;17.80
7882;BMP180;3986;41.884;23.466;2022-08-14T09:54:43;91513.00;;;18.30
7882;BMP180;3986;41.884;23.466;2022-08-14T09:57:11;91508.00;;;18.40
7882;BMP180;3986;41.884;23.466;2022-08-14T09:59:44;91517.00;;;18.50
7882;BMP180;3986;41.884;23.466;2022-08-14T10:02:19;91500.00;;;18.60
7882;BMP180;3986;41.884;23.466;2022-08-14T10:05:01;91512.00;;;18.60
7882;BMP180;3986;41.884;23.466;2022-08-14T10:07:30;91493.00;;;18.60
7882;BMP180;3986;41.884;23.466;2022-08-14T10:09:57;91495.00;;;18.20
7882;BMP180;3986;41.884;23.466;2022-08-14T10:12:25;91480.00;;;18.20
7882;BMP180;3986;41.884;23.466;2022-08-14T10:14:56;91493.00;;;18.30
7882;BMP180;3986;41.884;23.466;2022-08-14T10:17:23;91418.00;;;18.50
7882;BMP180;3986;41.884;23.466;2022-08-14T10:19:53;91483.00;;;18.10
7882;BMP180;3986;41.884;23.466;2022-08-14T10:22:24;91471.00;;;18.60
7882;BMP180;3986;41.884;23.466;2022-08-14T10:24:54;91463.00;;;18.20
7882;BMP180;3986;41.884;23.466;2022-08-14T10:27:23;91449.00;;;18.50
7882;BMP180;3986;41.884;23.466;2022-08-14T10:29:54;91456.00;;;18.80
7882;BMP180;3986;41.884;23.466;2022-08-14T10:32:22;91452.00;;;18.90
7882;BMP180;3986;41.884;23.466;2022-08-14T10:34:50;91429.00;;;18.60
7882;BMP180;3986;41.884;23.466;2022-08-14T10:37:17;91457.00;;;18.50
7882;BMP180;3986;41.884;23.466;2022-08-14T10:39:57;91438.00;;;17.80
7882;BMP180;3986;41.884;23.466;2022-08-14T10:42:33;91440.00;;;17.90
7882;BMP180;3986;41.884;23.466;2022-08-14T10:45:01;91456.00;;;18.20
7882;BMP180;3986;41.884;23.466;2022-08-14T10:47:35;91456.00;;;18.90
7882;BMP180;3986;41.884;23.466;2022-08-14T10:50:02;91443.00;;;18.90
7882;BMP180;3986;41.884;23.466;2022-08-14T10:52:32;91449.00;;;19.00
7882;BMP180;3986;41.884;23.466;2022-08-14T10:55:08;91452.00;;;18.50
7882;BMP180;3986;41.884;23.466;2022-08-14T10:57:47;91438.00;;;18.10
7882;BMP180;3986;41.884;23.466;2022-08-14T11:00:18;91443.00;;;18.90
7882;BMP180;3986;41.884;23.466;2022-08-14T11:02:56;91436.00;;;19.00
7882;BMP180;3986;41.884;23.466;2022-08-14T11:05:24;91438.00;;;18.90
7882;BMP180;3986;41.884;23.466;2022-08-14T11:07:56;91447.00;;;18.70
7882;BMP180;3986;41.884;23.466;2022-08-14T11:10:39;91431.00;;;19.60
7882;BMP180;3986;41.884;23.466;2022-08-14T11:13:06;91437.00;;;19.60
7882;BMP180;3986;41.884;23.466;2022-08-14T11:15:34;91413.00;;;19.70
7882;BMP180;3986;41.884;23.466;2022-08-14T11:18:03;91433.00;;;19.50
7882;BMP180;3986;41.884;23.466;2022-08-14T11:20:31;91429.00;;;19.80
7882;BMP180;3986;41.884;23.466;2022-08-14T11:23:00;91446.00;;;20.20
7882;BMP180;3986;41.884;23.466;2022-08-14T11:25:29;91411.00;;;19.90
7882;BMP180;3986;41.884;23.466;2022-08-14T11:27:58;91431.00;;;19.60
7882;BMP180;3986;41.884;23.466;2022-08-14T11:30:28;91431.00;;;19.70
7882;BMP180;3986;41.884;23.466;2022-08-14T11:32:56;91416.00;;;20.20
7882;BMP180;3986;41.884;23.466;2022-08-14T11:35:26;91393.00;;;21.10
7882;BMP180;3986;41.884;23.466;2022-08-14T11:37:54;91422.00;;;21.50
7882;BMP180;3986;41.884;23.466;2022-08-14T11:40:24;91419.00;;;21.90
7882;BMP180;3986;41.884;23.466;2022-08-14T11:42:52;91411.00;;;21.90
7882;BMP180;3986;41.884;23.466;2022-08-14T11:45:20;91346.00;;;21.30
7882;BMP180;3986;41.884;23.466;2022-08-14T11:47:47;91416.00;;;21.40
7882;BMP180;3986;41.884;23.466;2022-08-14T11:50:15;91422.00;;;21.10
7882;BMP180;3986;41.884;23.466;2022-08-14T11:52:44;91414.00;;;20.80
7882;BMP180;3986;41.884;23.466;2022-08-14T11:55:13;91421.00;;;21.10
7882;BMP180;3986;41.884;23.466;2022-08-14T11:57:40;91425.00;;;21.20
7882;BMP180;3986;41.884;23.466;2022-08-14T12:00:10;91421.00;;;21.60
7882;BMP180;3986;41.884;23.466;2022-08-14T12:02:48;91426.00;;;20.70
7882;BMP180;3986;41.884;23.466;2022-08-14T12:05:16;91425.00;;;19.90
7882;BMP180;3986;41.884;23.466;2022-08-14T12:07:56;91426.00;;;21.40
7882;BMP180;3986;41.884;23.466;2022-08-14T12:10:23;91422.00;;;21.70
7882;BMP180;3986;41.884;23.466;2022-08-14T12:12:50;91412.00;;;21.70
7882;BMP180;3986;41.884;23.466;2022-08-14T12:15:29;91426.00;;;22.40
7882;BMP180;3986;41.884;23.466;2022-08-14T12:17:56;91416.00;;;22.50
7882;BMP180;3986;41.884;23.466;2022-08-14T12:20:28;91423.00;;;22.80
7882;BMP180;3986;41.884;23.466;2022-08-14T12:22:57;91422.00;;;22.50
7882;BMP180;3986;41.884;23.466;2022-08-14T12:25:25;91421.00;;;21.30
7882;BMP180;3986;41.884;23.466;2022-08-14T12:27:54;91422.00;;;22.40
7882;BMP180;3986;41.884;23.466;2022-08-14T12:30:27;91432.00;;;22.80
7882;BMP180;3986;41.884;23.466;2022-08-14T12:32:54;91423.00;;;23.20
7882;BMP180;3986;41.884;23.466;2022-08-14T12:35:21;91422.00;;;23.40
7882;BMP180;3986;41.884;23.466;2022-08-14T12:37:50;91413.00;;;21.00
7882;BMP180;3986;41.884;23.466;2022-08-14T12:40:19;91405.00;;;21.10
7882;BMP180;3986;41.884;23.466;2022-08-14T12:42:49;91417.00;;;21.30
7882;BMP180;3986;41.884;23.466;2022-08-14T12:45:29;91412.00;;;21.70
7882;BMP180;3986;41.884;23.466;2022-08-14T12:47:59;91405.00;;;21.70
7882;BMP180;3986;41.884;23.466;2022-08-14T12:50:34;91401.00;;;22.60
7882;BMP180;3986;41.884;23.466;2022-08-14T12:53:01;91402.00;;;22.70
7882;BMP180;3986;41.884;23.466;2022-08-14T12:55:29;91383.00;;;20.80
7882;BMP180;3986;41.884;23.466;2022-08-14T12:58:02;91377.00;;;23.10
7882;BMP180;3986;41.884;23.466;2022-08-14T13:00:31;91382.00;;;22.60
7882;BMP180;3986;41.884;23.466;2022-08-14T13:02:59;91365.00;;;23.20
7882;BMP180;3986;41.884;23.466;2022-08-14T13:05:28;91377.00;;;22.80
7882;BMP180;3986;41.884;23.466;2022-08-14T13:07:57;91349.00;;;23.90
7882;BMP180;3986;41.884;23.466;2022-08-14T13:10:26;91348.00;;;24.70
7882;BMP180;3986;41.884;23.466;2022-08-14T13:12:58;91342.00;;;23.10
7882;BMP180;3986;41.884;23.466;2022-08-14T13:15:25;91340.00;;;24.00
7882;BMP180;3986;41.884;23.466;2022-08-14T13:17:54;91333.00;;;22.80
7882;BMP180;3986;41.884;23.466;2022-08-14T13:20:23;91294.00;;;22.00
7882;BMP180;3986;41.884;23.466;2022-08-14T13:22:52;91326.00;;;21.40
7882;BMP180;3986;41.884;23.466;2022-08-14T13:25:20;91326.00;;;21.80
7882;BMP180;3986;41.884;23.466;2022-08-14T13:27:50;91311.00;;;21.90
7882;BMP180;3986;41.884;23.466;2022-08-14T13:30:21;91324.00;;;21.80
7882;BMP180;3986;41.884;23.466;2022-08-14T13:32:49;91328.00;;;22.50
7882;BMP180;3986;41.884;23.466;2022-08-14T13:35:16;91339.00;;;22.30
7882;BMP180;3986;41.884;23.466;2022-08-14T13:37:44;91329.00;;;22.30
7882;BMP180;3986;41.884;23.466;2022-08-14T13:40:12;91321.00;;;23.20
7882;BMP180;3986;41.884;23.466;2022-08-14T13:42:42;91318.00;;;22.50
7882;BMP180;3986;41.884;23.466;2022-08-14T13:45:11;91320.00;;;22.70
7882;BMP180;3986;41.884;23.466;2022-08-14T13:47:41;91322.00;;;22.20
7882;BMP180;3986;41.884;23.466;2022-08-14T13:50:11;91314.00;;;22.20
7882;BMP180;3986;41.884;23.466;2022-08-14T13:52:42;91333.00;;;21.90
7882;BMP180;3986;41.884;23.466;2022-08-14T13:55:09;91332.00;;;22.00
7882;BMP180;3986;41.884;23.466;2022-08-14T13:57:39;91335.00;;;21.90
7882;BMP180;3986;41.884;23.466;2022-08-14T14:00:09;91344.00;;;22.60
7882;BMP180;3986;41.884;23.466;2022-08-14T14:02:37;91334.00;;;22.30
7882;BMP180;3986;41.884;23.466;2022-08-14T14:05:07;91348.00;;;21.90
7882;BMP180;3986;41.884;23.466;2022-08-14T14:07:36;91332.00;;;21.40
7882;BMP180;3986;41.884;23.466;2022-08-14T14:10:06;91332.00;;;21.50
7882;BMP180;3986;41.884;23.466;2022-08-14T14:12:35;91330.00;;;20.80
7882;BMP180;3986;41.884;23.466;2022-08-14T14:15:04;91330.00;;;21.00
7882;BMP180;3986;41.884;23.466;2022-08-14T14:17:34;91332.00;;;20.40
7882;BMP180;3986;41.884;23.466;2022-08-14T14:20:02;91324.00;;;20.80
7882;BMP180;3986;41.884;23.466;2022-08-14T14:22:32;91338.00;;;20.40
7882;BMP180;3986;41.884;23.466;2022-08-14T14:24:59;91322.00;;;20.60
7882;BMP180;3986;41.884;23.466;2022-08-14T14:27:27;91303.00;;;20.10
7882;BMP180;3986;41.884;23.466;2022-08-14T14:29:57;91313.00;;;20.00
7882;BMP180;3986;41.884;23.466;2022-08-14T14:32:28;91319.00;;;19.60
7882;BMP180;3986;41.884;23.466;2022-08-14T14:34:58;91317.00;;;19.60
7882;BMP180;3986;41.884;23.466;2022-08-14T14:37:27;91329.00;;;19.70